Time;durP1;ratioP1;P1;durP2;ratioP2;P2;SDS_P1;SDS_P2;PMS_P1;PMS_P2;Temp;Humidity;BMP_temperature;BMP_pressure;BME280_temperature;BME280_humidity;BME280_pressure;Samples;Min_cycle;Max_cycle;Signal;HPM_P1;HPM_P2
2021/01/22 00:02:17;;;;;;;75.73;45.37;;;0.90;94.00;;;;;;4960863;28;20725;-83
2021/01/22 00:04:45;;;;;;;72.33;45.03;;;0.90;94.00;;;;;;4971387;28;20212;-82
2021/01/22 00:07:13;;;;;;;74.07;44.57;;;0.90;94.00;;;;;;4957111;28;20203;-82
2021/01/22 00:09:40;;;;;;;76.63;44.83;;;0.90;94.00;;;;;;4978491;28;20582;-82
2021/01/22 00:12:08;;;;;;;76.10;43.73;;;0.90;94.00;;;;;;4970372;28;20210;-81
2021/01/22 00:14:36;;;;;;;77.47;44.43;;;0.90;94.00;;;;;;4969154;28;20205;-80
2021/01/22 00:17:04;;;;;;;75.60;43.77;;;0.90;93.90;;;;;;4974139;28;20191;-81
2021/01/22 00:19:33;;;;;;;73.43;43.87;;;0.90;93.90;;;;;;4987863;28;20231;-82
2021/01/22 00:22:00;;;;;;;73.37;43.73;;;0.80;93.90;;;;;;4990871;28;20256;-81
2021/01/22 00:24:28;;;;;;;78.57;43.47;;;0.70;93.80;;;;;;4993751;28;20234;-82
2021/01/22 00:26:56;;;;;;;71.07;43.13;;;0.70;93.80;;;;;;4976649;28;20211;-82
2021/01/22 00:29:23;;;;;;;72.10;44.73;;;0.60;93.80;;;;;;4992083;28;20206;-79
2021/01/22 00:31:51;;;;;;;80.03;45.27;;;0.60;93.80;;;;;;4974335;28;20609;-81
2021/01/22 00:34:18;;;;;;;73.10;43.70;;;0.50;93.70;;;;;;4967359;28;20683;-81
2021/01/22 00:36:47;;;;;;;73.80;43.80;;;0.50;93.80;;;;;;4984898;28;20213;-80
2021/01/22 00:39:14;;;;;;;74.90;43.20;;;0.40;93.70;;;;;;4983440;28;21065;-81
2021/01/22 00:41:42;;;;;;;73.03;44.97;;;0.40;93.70;;;;;;4968244;28;20214;-82
2021/01/22 00:44:09;;;;;;;72.47;42.13;;;0.40;93.80;;;;;;4976623;28;20400;-81
2021/01/22 00:46:38;;;;;;;78.93;43.93;;;0.30;93.80;;;;;;4966481;28;20582;-81
2021/01/22 00:49:06;;;;;;;70.33;42.67;;;0.30;93.80;;;;;;4968991;28;20202;-81
2021/01/22 00:51:34;;;;;;;76.87;43.90;;;0.30;93.80;;;;;;4973232;28;20751;-82
2021/01/22 00:54:03;;;;;;;74.80;43.07;;;0.30;93.80;;;;;;4953846;28;20262;-82
2021/01/22 00:56:31;;;;;;;76.00;43.87;;;0.30;93.80;;;;;;4949686;28;20297;-80
2021/01/22 00:58:59;;;;;;;74.10;43.90;;;0.30;93.80;;;;;;4956010;28;20834;-80
2021/01/22 01:01:28;;;;;;;78.73;43.43;;;0.20;93.80;;;;;;4964831;28;20412;-80
2021/01/22 01:03:55;;;;;;;78.90;45.13;;;0.20;93.80;;;;;;4976572;28;20941;-81
2021/01/22 01:06:23;;;;;;;75.43;43.27;;;0.20;93.80;;;;;;4969604;28;20653;-82
2021/01/22 01:08:51;;;;;;;74.37;41.50;;;0.20;93.80;;;;;;4968864;28;20214;-82
2021/01/22 01:11:19;;;;;;;73.57;43.20;;;0.20;93.80;;;;;;4989865;28;20486;-82
2021/01/22 01:13:46;;;;;;;73.03;42.17;;;0.20;93.80;;;;;;4992289;28;20203;-81
2021/01/22 01:16:14;;;;;;;74.87;44.03;;;0.30;93.80;;;;;;4971828;28;20206;-81
2021/01/22 01:18:42;;;;;;;72.67;40.70;;;0.30;93.80;;;;;;4973450;28;20689;-82
2021/01/22 01:21:10;;;;;;;70.30;42.37;;;0.40;93.80;;;;;;4965861;28;20227;-81
2021/01/22 01:23:38;;;;;;;74.57;41.43;;;0.30;93.80;;;;;;4971829;28;20208;-82
2021/01/22 01:26:06;;;;;;;68.73;40.30;;;0.30;93.80;;;;;;4968336;28;20202;-80
2021/01/22 01:28:34;;;;;;;70.17;42.37;;;0.30;93.80;;;;;;4966328;28;20258;-80
2021/01/22 01:31:02;;;;;;;75.80;43.07;;;0.20;93.80;;;;;;4970847;28;20630;-81
2021/01/22 01:33:29;;;;;;;76.00;42.83;;;0.20;93.80;;;;;;4966314;28;20726;-82
2021/01/22 01:35:57;;;;;;;72.30;41.83;;;0.20;93.80;;;;;;4990780;28;20193;-82
2021/01/22 01:38:24;;;;;;;72.07;40.93;;;0.20;93.80;;;;;;4975759;28;20760;-81
2021/01/22 01:40:52;;;;;;;73.33;42.33;;;0.20;93.80;;;;;;4965450;28;20214;-81
2021/01/22 01:43:19;;;;;;;70.37;40.80;;;0.10;93.70;;;;;;4951144;28;20201;-80
2021/01/22 01:45:47;;;;;;;69.27;40.50;;;0.10;93.70;;;;;;4971676;28;20189;-80
2021/01/22 01:48:17;;;;;;;70.13;41.07;;;0.10;93.70;;;;;;4968825;28;20257;-82
2021/01/22 01:50:46;;;;;;;67.53;39.50;;;0.10;93.70;;;;;;4984986;28;20213;-81
2021/01/22 01:53:13;;;;;;;78.27;42.53;;;0.10;93.70;;;;;;4968129;28;20217;-81
2021/01/22 01:55:41;;;;;;;68.03;40.33;;;0.00;93.70;;;;;;4967288;28;20207;-80
2021/01/22 01:58:09;;;;;;;68.17;39.93;;;0.00;93.70;;;;;;4954985;28;20208;-82
2021/01/22 02:00:36;;;;;;;69.43;40.90;;;0.00;93.70;;;;;;4953936;28;20443;-82
2021/01/22 02:03:05;;;;;;;77.40;42.37;;;0.00;93.70;;;;;;4956887;28;20218;-82
2021/01/22 02:05:33;;;;;;;71.80;42.13;;;-0.10;93.70;;;;;;4963239;28;20634;-82
2021/01/22 02:08:03;;;;;;;73.00;40.97;;;-0.10;93.70;;;;;;4979642;28;20940;-82
2021/01/22 02:10:32;;;;;;;74.63;41.63;;;-0.20;93.70;;;;;;4971742;28;20202;-81
2021/01/22 02:13:01;;;;;;;70.50;42.30;;;-0.20;93.70;;;;;;4988037;28;20189;-82
2021/01/22 02:15:30;;;;;;;70.17;40.77;;;-0.20;93.70;;;;;;4986469;28;20472;-80
2021/01/22 02:17:58;;;;;;;73.33;41.27;;;-0.20;93.70;;;;;;4978401;28;20196;-82
2021/01/22 02:20:36;;;;;;;76.43;41.50;;;-0.20;93.70;;;;;;4975683;28;20201;-80
2021/01/22 02:23:04;;;;;;;69.63;41.00;;;-0.30;93.70;;;;;;4980103;28;20201;-81
2021/01/22 02:25:34;;;;;;;71.60;41.13;;;-0.30;93.70;;;;;;4978308;28;20253;-82
2021/01/22 02:28:07;;;;;;;72.83;42.17;;;-0.30;93.70;;;;;;4979374;28;20548;-79
2021/01/22 02:30:35;;;;;;;76.27;43.70;;;-0.30;93.70;;;;;;4975239;28;20778;-82
2021/01/22 02:33:05;;;;;;;72.47;42.73;;;-0.20;93.70;;;;;;4983933;28;20669;-80
2021/01/22 02:35:35;;;;;;;79.03;43.27;;;-0.20;93.70;;;;;;4975826;28;20205;-80
2021/01/22 02:38:04;;;;;;;71.37;42.00;;;-0.20;93.70;;;;;;4988759;28;20204;-82
2021/01/22 02:40:34;;;;;;;70.27;41.07;;;0.00;93.80;;;;;;4983019;28;20193;-80
2021/01/22 02:43:05;;;;;;;76.70;40.93;;;-0.10;93.70;;;;;;4974052;28;20210;-82
2021/01/22 02:45:33;;;;;;;72.50;40.37;;;0.00;93.80;;;;;;4981327;28;20202;-80
2021/01/22 02:48:01;;;;;;;71.90;40.93;;;0.00;93.80;;;;;;4996152;28;20440;-81
2021/01/22 02:50:33;;;;;;;70.40;40.73;;;0.10;93.80;;;;;;4978994;28;20198;-82
2021/01/22 02:53:01;;;;;;;70.40;41.20;;;0.20;93.80;;;;;;4985167;28;20207;-81
2021/01/22 02:55:30;;;;;;;74.10;41.87;;;0.20;93.80;;;;;;4982305;28;20273;-79
2021/01/22 02:58:03;;;;;;;73.10;40.20;;;0.20;93.80;;;;;;4986615;28;20662;-81
2021/01/22 03:00:36;;;;;;;70.80;40.70;;;0.20;93.80;;;;;;4980462;28;20226;-82
2021/01/22 03:03:10;;;;;;;66.60;40.23;;;0.20;93.80;;;;;;4998310;28;20527;-79
2021/01/22 03:05:40;;;;;;;70.90;40.47;;;0.20;93.80;;;;;;4986873;28;20534;-81
2021/01/22 03:08:10;;;;;;;67.53;38.83;;;0.20;93.80;;;;;;4986629;28;20203;-81
2021/01/22 03:10:40;;;;;;;66.93;39.63;;;0.20;93.80;;;;;;4993063;28;20484;-81
2021/01/22 03:13:08;;;;;;;66.87;39.67;;;0.20;93.80;;;;;;5000056;28;20190;-81
2021/01/22 03:15:36;;;;;;;71.40;39.53;;;0.20;93.80;;;;;;4998205;28;20483;-81
2021/01/22 03:18:11;;;;;;;64.47;38.50;;;0.40;93.90;;;;;;4992033;28;20378;-80
2021/01/22 03:20:40;;;;;;;68.40;38.63;;;0.40;93.90;;;;;;4981264;28;20238;-80
2021/01/22 03:23:08;;;;;;;68.40;38.53;;;0.30;93.90;;;;;;4988888;28;20307;-81
2021/01/22 03:25:36;;;;;;;62.43;36.40;;;0.30;93.90;;;;;;4994182;28;20183;-81
2021/01/22 03:28:04;;;;;;;65.83;38.23;;;0.30;93.80;;;;;;5004893;28;20222;-82
2021/01/22 03:30:32;;;;;;;68.33;37.93;;;0.30;93.90;;;;;;4980723;28;20283;-81
2021/01/22 03:33:00;;;;;;;65.10;37.43;;;0.30;93.80;;;;;;4979499;28;20288;-80
2021/01/22 03:35:29;;;;;;;65.60;37.40;;;0.40;93.90;;;;;;4957715;28;20583;-81
2021/01/22 03:37:57;;;;;;;63.00;37.90;;;0.30;93.80;;;;;;4992456;28;20224;-80
2021/01/22 03:40:26;;;;;;;66.07;37.97;;;0.40;93.80;;;;;;4994649;28;21061;-83
2021/01/22 03:42:53;;;;;;;60.93;37.07;;;0.40;93.80;;;;;;4992985;28;20929;-80
2021/01/22 03:45:21;;;;;;;62.97;36.73;;;0.40;93.80;;;;;;4978736;28;20279;-81
2021/01/22 03:47:48;;;;;;;65.57;38.50;;;0.40;93.80;;;;;;4973779;28;20646;-81
2021/01/22 03:50:17;;;;;;;71.13;37.37;;;0.40;93.80;;;;;;4973720;28;20200;-81
2021/01/22 03:52:44;;;;;;;60.40;35.67;;;0.30;93.80;;;;;;4968020;28;20678;-82
2021/01/22 03:55:12;;;;;;;62.70;37.63;;;0.30;93.80;;;;;;4967272;28;20205;-81
2021/01/22 03:57:40;;;;;;;65.47;36.10;;;0.40;93.80;;;;;;4981641;28;20200;-81
2021/01/22 04:00:08;;;;;;;62.97;37.83;;;0.30;93.80;;;;;;4984373;28;20238;-81
2021/01/22 04:02:36;;;;;;;65.97;36.63;;;0.30;93.80;;;;;;4970107;28;20441;-81
2021/01/22 04:05:04;;;;;;;59.87;36.90;;;0.40;93.80;;;;;;4975700;28;20754;-81
2021/01/22 04:07:32;;;;;;;59.43;35.03;;;0.30;93.80;;;;;;4965369;28;20211;-83
2021/01/22 04:10:00;;;;;;;63.07;36.37;;;0.30;93.80;;;;;;4965165;28;20191;-81
2021/01/22 04:12:28;;;;;;;59.10;35.33;;;0.40;93.80;;;;;;4971285;28;20573;-80
2021/01/22 04:14:56;;;;;;;60.67;36.10;;;0.50;93.80;;;;;;4963029;28;20210;-81
2021/01/22 04:17:23;;;;;;;63.80;36.73;;;0.40;93.80;;;;;;4961645;28;20211;-81
2021/01/22 04:19:51;;;;;;;61.43;36.53;;;0.40;93.80;;;;;;4960824;28;20237;-80
2021/01/22 04:22:18;;;;;;;61.40;36.87;;;0.40;93.80;;;;;;4963178;28;20211;-81
2021/01/22 04:24:47;;;;;;;56.33;34.30;;;0.30;93.70;;;;;;4955823;28;20207;-81
2021/01/22 04:27:15;;;;;;;64.63;36.17;;;0.30;93.80;;;;;;4961790;28;20218;-83
2021/01/22 04:29:42;;;;;;;65.67;36.67;;;0.30;93.80;;;;;;4981616;28;20216;-82
2021/01/22 04:32:10;;;;;;;58.77;36.30;;;0.30;93.80;;;;;;4976334;28;20224;-81
2021/01/22 04:34:39;;;;;;;61.67;35.57;;;0.40;93.80;;;;;;4961110;28;20212;-83
2021/01/22 04:37:06;;;;;;;59.57;34.77;;;0.40;93.80;;;;;;4989426;28;20600;-79
2021/01/22 04:39:35;;;;;;;59.40;35.30;;;0.40;93.80;;;;;;4981848;28;20232;-81
2021/01/22 04:42:04;;;;;;;59.17;34.87;;;0.50;93.90;;;;;;4984766;28;20497;-81
2021/01/22 04:44:32;;;;;;;58.23;36.00;;;0.50;93.90;;;;;;4989047;28;20203;-80
2021/01/22 04:47:01;;;;;;;58.93;34.87;;;0.50;93.90;;;;;;4986748;28;20981;-81
2021/01/22 04:49:29;;;;;;;64.00;35.60;;;0.60;93.90;;;;;;4990881;28;20487;-82
2021/01/22 04:51:58;;;;;;;57.27;34.70;;;0.60;93.90;;;;;;4992609;28;20503;-79
2021/01/22 04:54:29;;;;;;;58.40;34.43;;;0.60;93.90;;;;;;4987069;28;20212;-81
2021/01/22 04:56:59;;;;;;;57.00;33.17;;;0.60;93.90;;;;;;4984604;28;20291;-80
2021/01/22 04:59:35;;;;;;;55.80;35.63;;;0.70;93.90;;;;;;4989217;28;20226;-82
2021/01/22 05:02:03;;;;;;;60.93;37.00;;;0.70;93.90;;;;;;4988857;28;20195;-80
2021/01/22 05:04:31;;;;;;;54.27;34.70;;;0.80;93.90;;;;;;5002533;28;20447;-82
2021/01/22 05:06:59;;;;;;;57.50;35.20;;;0.70;93.80;;;;;;4997075;28;20269;-82
2021/01/22 05:09:29;;;;;;;57.87;34.37;;;0.70;93.80;;;;;;4984693;28;20421;-82
2021/01/22 05:11:56;;;;;;;54.07;33.57;;;0.60;93.80;;;;;;4994250;28;20208;-81
2021/01/22 05:14:24;;;;;;;54.93;33.53;;;0.60;93.80;;;;;;4990012;28;20208;-83
2021/01/22 05:17:06;;;;;;;53.37;32.77;;;0.60;93.80;;;;;;5001134;28;20210;-81
2021/01/22 05:19:34;;;;;;;53.37;31.77;;;0.80;93.80;;;;;;4999072;28;20218;-81
2021/01/22 05:22:04;;;;;;;57.97;33.80;;;0.70;93.80;;;;;;4967378;28;20565;-81
2021/01/22 05:24:34;;;;;;;58.83;34.10;;;0.70;93.80;;;;;;4978783;28;20804;-82
2021/01/22 05:27:04;;;;;;;54.97;34.03;;;0.60;93.80;;;;;;4965633;28;20227;-82
2021/01/22 05:29:34;;;;;;;53.53;34.40;;;0.70;93.80;;;;;;4987808;28;20210;-81
2021/01/22 05:32:23;;;;;;;53.73;31.93;;;0.70;93.80;;;;;;4975050;28;20305;-80
2021/01/22 05:34:51;;;;;;;49.20;30.33;;;0.80;93.80;;;;;;4988278;28;20210;-83
2021/01/22 05:37:20;;;;;;;55.60;31.20;;;0.90;93.90;;;;;;4992840;28;20314;-83
2021/01/22 05:40:09;;;;;;;53.73;31.93;;;0.80;93.90;;;;;;4979038;28;20232;-81
2021/01/22 05:42:47;;;;;;;50.17;30.10;;;0.90;93.90;;;;;;4986120;28;20257;-80
2021/01/22 05:45:15;;;;;;;49.27;31.30;;;0.90;93.80;;;;;;4988263;28;20239;-81
2021/01/22 05:47:44;;;;;;;49.97;30.47;;;1.00;93.80;;;;;;4962384;28;20655;-82
2021/01/22 05:50:13;;;;;;;59.20;32.13;;;1.00;93.80;;;;;;4973948;28;20530;-82
2021/01/22 05:52:41;;;;;;;52.17;31.90;;;1.00;93.80;;;;;;4969869;28;20589;-81
2021/01/22 05:55:23;;;;;;;50.93;32.03;;;0.90;93.80;;;;;;4968728;28;20682;-81
2021/01/22 05:57:50;;;;;;;50.67;31.13;;;0.90;93.70;;;;;;4979604;28;20736;-83
2021/01/22 06:00:19;;;;;;;50.43;31.03;;;0.80;93.70;;;;;;4965525;28;20233;-82
2021/01/22 06:02:47;;;;;;;46.53;29.20;;;0.80;93.70;;;;;;4971177;28;20357;-81
2021/01/22 06:05:16;;;;;;;48.03;30.30;;;0.80;93.70;;;;;;4961764;28;20302;-82
2021/01/22 06:07:46;;;;;;;46.27;29.60;;;0.70;93.80;;;;;;4987013;28;20375;-81
2021/01/22 06:10:16;;;;;;;47.70;29.27;;;0.80;93.80;;;;;;4978341;28;20791;-81
2021/01/22 06:12:51;;;;;;;41.33;28.63;;;0.80;93.80;;;;;;4988814;28;20663;-81
2021/01/22 06:15:21;;;;;;;49.40;29.90;;;0.80;93.80;;;;;;4976361;28;20200;-82
2021/01/22 06:17:51;;;;;;;50.70;30.60;;;0.80;93.80;;;;;;4978482;28;20206;-81
2021/01/22 06:20:22;;;;;;;47.07;30.90;;;0.70;93.80;;;;;;4969502;28;20227;-80
2021/01/22 06:23:06;;;;;;;50.10;31.20;;;0.60;93.70;;;;;;4975645;28;20232;-80
2021/01/22 06:25:35;;;;;;;50.33;28.97;;;0.60;93.80;;;;;;4965143;28;20228;-80
2021/01/22 06:28:04;;;;;;;48.03;29.83;;;0.60;93.80;;;;;;4984435;28;20202;-80
2021/01/22 06:30:33;;;;;;;257.93;60.33;;;0.60;93.80;;;;;;4976848;28;20315;-81
2021/01/22 06:33:03;;;;;;;60.87;35.77;;;0.60;93.80;;;;;;4992647;28;20560;-81
2021/01/22 06:35:37;;;;;;;50.70;31.17;;;0.60;93.80;;;;;;4977897;28;20227;-82
2021/01/22 06:38:07;;;;;;;59.27;31.47;;;0.70;93.90;;;;;;4975551;28;20856;-82
2021/01/22 06:40:34;;;;;;;56.33;30.27;;;0.70;93.90;;;;;;4968853;28;20249;-82
2021/01/22 06:43:03;;;;;;;52.50;28.60;;;0.70;93.90;;;;;;4995455;28;20214;-80
2021/01/22 06:45:31;;;;;;;59.57;31.57;;;0.70;94.00;;;;;;4977063;28;20224;-82
2021/01/22 06:48:05;;;;;;;43.93;28.53;;;0.80;94.00;;;;;;4966226;28;20235;-80
2021/01/22 06:50:35;;;;;;;50.67;28.77;;;0.80;94.00;;;;;;4991526;28;20954;-80
2021/01/22 06:53:11;;;;;;;51.50;29.57;;;0.90;94.00;;;;;;4982259;28;20797;-81
2021/01/22 06:56:07;;;;;;;53.47;31.53;;;1.00;94.10;;;;;;4963310;28;20249;-81
2021/01/22 06:58:36;;;;;;;41.83;27.40;;;1.00;94.00;;;;;;4962063;28;21276;-80
2021/01/22 07:01:33;;;;;;;50.57;30.73;;;1.00;94.00;;;;;;4976898;28;20943;-79
2021/01/22 07:04:03;;;;;;;47.27;28.53;;;1.00;94.00;;;;;;4975962;28;20212;-81
2021/01/22 07:06:54;;;;;;;49.70;31.20;;;1.00;94.00;;;;;;4973015;28;20543;-82
2021/01/22 07:09:23;;;;;;;49.70;29.87;;;1.00;94.00;;;;;;4971350;28;20594;-81
2021/01/22 07:11:58;;;;;;;45.53;29.33;;;1.10;94.00;;;;;;4970254;28;20689;-81
2021/01/22 07:14:36;;;;;;;47.83;29.80;;;1.10;94.00;;;;;;4968440;28;20747;-82
2021/01/22 07:17:15;;;;;;;45.33;28.77;;;1.10;94.00;;;;;;4972265;28;20312;-81
2021/01/22 07:19:59;;;;;;;47.17;29.20;;;1.10;94.00;;;;;;4969247;28;20232;-79
2021/01/22 07:22:29;;;;;;;43.97;28.60;;;1.20;94.00;;;;;;4968466;28;20665;-80
2021/01/22 07:24:58;;;;;;;45.83;28.67;;;1.20;94.10;;;;;;4971840;28;20885;-81
2021/01/22 07:27:39;;;;;;;47.70;30.07;;;1.20;94.10;;;;;;4948786;28;20213;-82
2021/01/22 07:30:15;;;;;;;48.47;28.20;;;1.20;94.10;;;;;;4971548;28;21088;-80
2021/01/22 07:32:44;;;;;;;44.40;27.93;;;1.30;94.10;;;;;;4983702;28;20331;-80
2021/01/22 07:35:21;;;;;;;42.20;28.47;;;1.40;94.10;;;;;;4988714;28;20208;-80
2021/01/22 07:37:49;;;;;;;42.57;27.70;;;1.30;94.10;;;;;;4972939;28;20642;-79
2021/01/22 07:40:18;;;;;;;43.97;28.17;;;1.30;94.10;;;;;;4973225;28;20694;-82
2021/01/22 07:42:46;;;;;;;46.13;27.00;;;1.30;94.10;;;;;;4968279;28;20209;-82
2021/01/22 07:45:15;;;;;;;41.33;26.17;;;1.40;94.20;;;;;;4977113;28;20196;-81
2021/01/22 07:47:48;;;;;;;38.60;22.83;;;1.50;94.20;;;;;;4967287;28;20753;-81
2021/01/22 07:50:18;;;;;;;37.93;24.17;;;1.70;94.30;;;;;;4972153;28;20208;-82
2021/01/22 07:52:48;;;;;;;38.10;24.50;;;1.90;94.40;;;;;;4966683;28;20204;-80
2021/01/22 07:55:17;;;;;;;36.80;23.80;;;2.00;94.40;;;;;;4968339;28;20659;-83
2021/01/22 07:57:47;;;;;;;34.27;23.80;;;2.20;94.50;;;;;;4969788;28;20211;-81
2021/01/22 08:00:16;;;;;;;35.60;24.37;;;2.40;94.40;;;;;;4972059;28;20239;-82
2021/01/22 08:02:57;;;;;;;39.57;23.17;;;2.50;94.20;;;;;;4969014;28;20204;-82
2021/01/22 08:05:33;;;;;;;40.30;24.40;;;2.50;93.90;;;;;;4967304;28;20362;-80
2021/01/22 08:08:17;;;;;;;37.40;23.87;;;2.60;93.70;;;;;;4972731;28;20584;-83
2021/01/22 08:10:46;;;;;;;38.20;23.00;;;2.70;93.40;;;;;;4965891;28;20280;-82
2021/01/22 08:13:15;;;;;;;34.83;22.90;;;2.80;93.30;;;;;;4969261;28;20283;-82
2021/01/22 08:15:44;;;;;;;34.43;23.20;;;3.00;93.10;;;;;;4955166;28;20217;-81
2021/01/22 08:18:13;;;;;;;32.23;21.23;;;3.10;93.10;;;;;;4969413;28;20283;-81
2021/01/22 08:20:50;;;;;;;36.30;22.37;;;3.30;93.00;;;;;;4949724;28;20251;-81
2021/01/22 08:23:23;;;;;;;31.93;22.00;;;3.50;92.60;;;;;;4968653;28;20702;-82
2021/01/22 08:25:59;;;;;;;35.87;22.07;;;3.60;92.10;;;;;;4968287;28;20207;-80
2021/01/22 08:28:31;;;;;;;33.03;21.43;;;3.80;91.90;;;;;;4966337;28;21067;-82
2021/01/22 08:30:58;;;;;;;32.90;20.30;;;3.90;91.60;;;;;;4974169;28;20202;-81
2021/01/22 08:33:26;;;;;;;28.77;19.90;;;4.00;91.40;;;;;;4987709;28;20306;-81
2021/01/22 08:35:55;;;;;;;26.97;19.20;;;4.00;91.30;;;;;;4967673;28;20207;-81
2021/01/22 08:38:24;;;;;;;28.00;18.77;;;4.10;91.20;;;;;;4970420;28;20271;-82
2021/01/22 08:40:52;;;;;;;29.47;18.53;;;4.10;91.20;;;;;;4972191;28;20402;-82
2021/01/22 08:43:20;;;;;;;27.40;19.67;;;4.20;91.20;;;;;;4972827;28;20561;-81
2021/01/22 08:46:07;;;;;;;26.37;18.80;;;4.30;91.10;;;;;;4981676;28;20206;-81
2021/01/22 08:48:36;;;;;;;25.13;17.97;;;4.40;91.10;;;;;;4981407;28;20202;-82
2021/01/22 08:51:05;;;;;;;27.47;18.87;;;4.50;91.00;;;;;;4962154;28;20455;-83
2021/01/22 08:53:34;;;;;;;31.10;19.53;;;4.50;90.90;;;;;;4982451;28;20214;-82
2021/01/22 08:56:12;;;;;;;27.97;19.27;;;4.50;90.90;;;;;;4980682;28;20369;-82
2021/01/22 08:59:00;;;;;;;27.47;18.63;;;4.50;90.90;;;;;;4974411;28;20790;-82
2021/01/22 09:01:53;;;;;;;28.30;19.00;;;4.50;90.80;;;;;;4965579;28;20315;-81
2021/01/22 09:04:26;;;;;;;38.43;20.07;;;4.50;90.80;;;;;;4980492;28;20254;-82
2021/01/22 09:06:56;;;;;;;25.80;18.20;;;4.50;90.80;;;;;;4974259;28;20209;-82
2021/01/22 09:09:42;;;;;;;29.60;19.40;;;4.50;90.90;;;;;;4948929;28;20236;-80
2021/01/22 09:12:12;;;;;;;25.77;19.67;;;4.40;91.00;;;;;;4965406;28;20208;-82
2021/01/22 09:14:50;;;;;;;30.13;20.73;;;4.50;91.00;;;;;;4966008;28;20200;-79
2021/01/22 09:17:33;;;;;;;26.13;19.17;;;4.50;90.90;;;;;;4965939;28;20460;-82
2021/01/22 09:20:06;;;;;;;29.60;20.53;;;4.60;91.00;;;;;;4961924;28;20680;-84
2021/01/22 09:22:35;;;;;;;28.77;19.37;;;4.70;90.90;;;;;;4963899;28;20204;-81
2021/01/22 09:25:06;;;;;;;28.30;18.80;;;4.80;90.90;;;;;;4962538;28;20438;-82
2021/01/22 09:27:34;;;;;;;29.63;18.80;;;4.90;90.80;;;;;;4968362;28;20281;-82
2021/01/22 09:30:05;;;;;;;26.30;18.90;;;5.00;90.50;;;;;;4966299;28;20278;-82
2021/01/22 09:32:33;;;;;;;27.50;17.60;;;5.10;90.40;;;;;;4968053;28;20862;-82
2021/01/22 09:35:01;;;;;;;25.57;18.57;;;5.20;90.30;;;;;;4965844;28;20533;-82
2021/01/22 09:37:29;;;;;;;24.70;17.40;;;5.30;90.30;;;;;;4970840;28;20206;-83
2021/01/22 09:39:56;;;;;;;26.40;18.43;;;5.30;90.30;;;;;;4983321;28;20218;-84
2021/01/22 09:42:25;;;;;;;27.13;17.57;;;5.40;90.20;;;;;;4974175;28;20583;-81
2021/01/22 09:44:53;;;;;;;23.70;17.47;;;5.60;90.10;;;;;;4971448;28;20670;-83
2021/01/22 09:47:20;;;;;;;21.60;16.50;;;5.50;90.00;;;;;;4958568;28;20198;-81
2021/01/22 09:49:48;;;;;;;23.80;16.47;;;5.60;89.90;;;;;;4972217;28;20243;-81
2021/01/22 09:52:16;;;;;;;22.53;17.10;;;5.60;89.90;;;;;;4967524;28;20196;-79
2021/01/22 09:54:45;;;;;;;25.03;16.40;;;5.50;89.80;;;;;;4975144;28;20238;-80
2021/01/22 09:57:13;;;;;;;22.20;15.60;;;5.60;90.00;;;;;;4983265;28;20433;-83
2021/01/22 09:59:42;;;;;;;22.67;16.60;;;5.50;89.90;;;;;;4974951;28;20204;-81
2021/01/22 10:02:10;;;;;;;24.03;17.33;;;5.50;90.00;;;;;;4972544;28;20669;-81
2021/01/22 10:04:38;;;;;;;21.63;16.27;;;5.50;90.00;;;;;;4970838;28;20234;-81
2021/01/22 10:07:06;;;;;;;25.33;17.03;;;5.50;90.10;;;;;;4969186;28;20310;-82
2021/01/22 10:09:34;;;;;;;22.40;15.57;;;5.40;90.00;;;;;;4980871;28;20572;-82
2021/01/22 10:12:02;;;;;;;22.90;16.40;;;5.50;90.10;;;;;;4980828;28;20756;-80
2021/01/22 10:14:30;;;;;;;21.93;16.83;;;5.50;90.20;;;;;;4972277;28;20551;-79
2021/01/22 10:16:58;;;;;;;21.87;16.47;;;5.60;90.10;;;;;;4978852;28;20206;-80
2021/01/22 10:19:32;;;;;;;22.17;16.50;;;5.70;90.00;;;;;;4987107;28;20207;-80
2021/01/22 10:22:00;;;;;;;21.97;16.60;;;6.00;89.80;;;;;;4983923;28;20295;-81
2021/01/22 10:24:29;;;;;;;23.67;16.63;;;6.10;89.50;;;;;;4984810;28;20207;-81
2021/01/22 10:26:57;;;;;;;22.43;15.43;;;6.20;89.20;;;;;;4958427;28;20204;-81
2021/01/22 10:29:25;;;;;;;20.53;16.07;;;6.30;88.90;;;;;;4983104;28;20314;-81
2021/01/22 10:31:52;;;;;;;19.77;15.57;;;6.40;88.50;;;;;;4984312;28;20213;-83
2021/01/22 10:34:22;;;;;;;23.43;15.53;;;6.50;88.30;;;;;;4981887;28;20200;-81
2021/01/22 10:36:49;;;;;;;20.93;15.20;;;6.60;88.20;;;;;;4987208;28;20200;-82
2021/01/22 10:39:17;;;;;;;21.00;15.33;;;6.80;87.90;;;;;;4979779;28;20198;-82
2021/01/22 10:41:44;;;;;;;20.17;14.87;;;6.80;87.80;;;;;;4986566;28;20869;-80
2021/01/22 10:44:12;;;;;;;21.10;14.70;;;6.90;87.70;;;;;;4979875;28;20313;-81
2021/01/22 10:46:39;;;;;;;22.40;15.00;;;6.90;87.40;;;;;;4982459;28;20201;-81
2021/01/22 10:49:07;;;;;;;21.10;16.10;;;7.00;87.50;;;;;;4984251;28;20206;-83
2021/01/22 10:51:36;;;;;;;21.27;16.20;;;7.00;87.40;;;;;;4977754;28;20218;-82
2021/01/22 10:54:04;;;;;;;24.27;18.23;;;7.10;87.20;;;;;;4987232;28;20206;-82
2021/01/22 10:56:31;;;;;;;25.70;16.70;;;7.10;87.10;;;;;;4994175;28;20211;-82
2021/01/22 10:58:59;;;;;;;24.57;18.03;;;7.10;87.10;;;;;;4987961;28;20215;-84
2021/01/22 11:01:27;;;;;;;24.40;18.13;;;7.10;87.10;;;;;;4984538;28;20540;-83
2021/01/22 11:03:54;;;;;;;24.20;17.77;;;7.00;87.10;;;;;;4974231;28;20268;-81
2021/01/22 11:06:22;;;;;;;25.20;17.63;;;6.90;87.20;;;;;;4993958;28;21284;-83
2021/01/22 11:08:50;;;;;;;24.87;18.23;;;6.80;87.50;;;;;;4998853;28;20267;-81
2021/01/22 11:11:18;;;;;;;28.37;18.23;;;6.80;87.80;;;;;;4981957;28;20452;-81
2021/01/22 11:13:46;;;;;;;24.57;17.87;;;6.70;87.90;;;;;;4982114;28;20622;-80
2021/01/22 11:16:13;;;;;;;21.97;16.93;;;6.70;88.00;;;;;;4975319;28;20227;-82
2021/01/22 11:18:41;;;;;;;24.30;17.67;;;6.80;88.00;;;;;;4979085;28;20244;-80
2021/01/22 11:21:09;;;;;;;26.37;17.40;;;6.70;88.10;;;;;;4970007;28;20397;-79
2021/01/22 11:23:36;;;;;;;23.90;17.07;;;6.80;88.30;;;;;;4970169;28;20473;-81
2021/01/22 11:26:05;;;;;;;21.47;16.23;;;6.80;88.00;;;;;;4970929;28;20207;-81
2021/01/22 11:28:33;;;;;;;24.40;17.37;;;6.90;87.90;;;;;;4972802;28;20214;-79
2021/01/22 11:31:02;;;;;;;25.10;18.77;;;7.00;87.90;;;;;;4973998;28;20225;-80
2021/01/22 11:33:30;;;;;;;21.97;16.47;;;7.10;87.70;;;;;;4976910;28;20196;-80
2021/01/22 11:36:02;;;;;;;26.37;17.47;;;7.10;87.80;;;;;;4976379;28;20722;-80
2021/01/22 11:38:30;;;;;;;21.80;17.37;;;7.20;87.60;;;;;;4975130;28;20270;-78
2021/01/22 11:40:58;;;;;;;25.37;17.37;;;7.20;87.30;;;;;;4972185;28;20228;-80
2021/01/22 11:43:26;;;;;;;24.63;17.23;;;7.20;87.50;;;;;;4967918;28;20579;-79
2021/01/22 11:45:53;;;;;;;26.27;18.37;;;7.10;87.50;;;;;;4976105;28;20402;-82
2021/01/22 11:48:21;;;;;;;22.43;16.93;;;7.00;87.60;;;;;;4950174;28;20740;-83
2021/01/22 11:50:49;;;;;;;26.97;17.77;;;6.90;87.90;;;;;;4977988;28;20203;-82
2021/01/22 11:53:17;;;;;;;27.23;17.50;;;6.80;87.80;;;;;;4967169;28;21115;-82
2021/01/22 11:55:45;;;;;;;25.47;16.83;;;6.90;88.30;;;;;;4971133;28;20261;-82
2021/01/22 11:58:13;;;;;;;24.27;16.27;;;6.60;88.60;;;;;;4966924;28;20267;-82
2021/01/22 12:00:42;;;;;;;23.50;16.17;;;6.60;89.00;;;;;;4963315;28;20306;-81
2021/01/22 12:03:12;;;;;;;21.07;14.80;;;6.40;89.00;;;;;;4972769;28;20610;-82
2021/01/22 12:05:40;;;;;;;19.73;14.13;;;6.60;89.40;;;;;;4975127;28;20522;-82
2021/01/22 12:08:23;;;;;;;23.53;14.50;;;6.40;89.40;;;;;;4978891;28;20215;-82
2021/01/22 12:10:51;;;;;;;18.43;13.40;;;6.40;90.00;;;;;;4967147;28;20203;-81
2021/01/22 12:13:18;;;;;;;18.67;13.47;;;6.50;89.90;;;;;;4966139;28;20218;-80
2021/01/22 12:15:47;;;;;;;15.47;12.20;;;6.60;89.80;;;;;;4961418;28;20421;-82
2021/01/22 12:18:15;;;;;;;18.50;12.43;;;6.70;89.60;;;;;;4962601;28;20210;-83
2021/01/22 12:20:45;;;;;;;19.33;11.13;;;6.80;89.30;;;;;;4968658;28;20670;-81
2021/01/22 12:23:12;;;;;;;17.33;11.90;;;6.90;89.20;;;;;;4964192;28;20208;-80
2021/01/22 12:25:45;;;;;;;20.37;11.77;;;6.90;89.00;;;;;;4965037;28;20210;-83
2021/01/22 12:28:13;;;;;;;17.40;12.20;;;7.10;88.80;;;;;;4967061;28;20648;-82
2021/01/22 12:30:40;;;;;;;15.97;12.33;;;7.10;88.60;;;;;;4974850;28;20279;-81
2021/01/22 12:33:09;;;;;;;18.50;12.33;;;7.20;88.20;;;;;;4968953;28;20297;-82
2021/01/22 12:35:37;;;;;;;16.53;11.70;;;7.20;88.10;;;;;;4966517;28;20676;-82
2021/01/22 12:38:05;;;;;;;17.07;11.47;;;7.30;88.30;;;;;;4972506;28;20202;-82
2021/01/22 12:40:32;;;;;;;18.17;12.47;;;7.40;88.00;;;;;;4978111;28;20223;-82
2021/01/22 12:42:59;;;;;;;18.00;12.27;;;7.40;87.80;;;;;;4994287;28;20412;-82
2021/01/22 12:45:27;;;;;;;19.63;12.97;;;7.40;87.70;;;;;;4985914;28;21458;-82
2021/01/22 12:47:55;;;;;;;18.37;12.30;;;7.40;87.90;;;;;;4976406;28;20392;-80
2021/01/22 12:50:24;;;;;;;20.30;12.63;;;7.40;87.90;;;;;;4978642;28;20216;-83